Time;durP1;ratioP1;P1;durP2;ratioP2;P2;SDS_P1;SDS_P2;PMS_P1;PMS_P2;Temp;Humidity;BMP_temperature;BMP_pressure;BME280_temperature;BME280_humidity;BME280_pressure;Samples;Min_cycle;Max_cycle;Signal;HPM_P1;HPM_P2
2023/04/21 05:00:42;;;;;;;11.70;10.60;;;;;;;;;;1748328;28;20201;-67
2023/04/21 05:01:33;;;;;;;11.45;10.35;;;;;;;;;;1749124;28;20206;-66
2023/04/21 05:02:25;;;;;;;11.35;10.25;;;;;;;;;;1749062;28;20238;-66
2023/04/21 05:03:16;;;;;;;12.18;10.90;;;;;;;;;;1749066;28;20264;-66
2023/04/21 05:04:08;;;;;;;11.32;10.32;;;;;;;;;;1749155;28;20611;-66
2023/04/21 05:04:59;;;;;;;11.05;10.05;;;;;;;;;;1749121;28;20708;-67
2023/04/21 05:05:53;;;;;;;10.70;9.70;;;;;;;;;;1749080;28;20205;-67
2023/04/21 05:06:44;;;;;;;11.50;10.40;;;;;;;;;;1748843;28;20202;-67
2023/04/21 05:07:36;;;;;;;11.15;10.25;;;;;;;;;;1754022;28;20190;-67
2023/04/21 05:08:27;;;;;;;10.98;9.88;;;;;;;;;;1755992;28;20194;-67
2023/04/21 05:09:19;;;;;;;12.13;10.80;;;;;;;;;;1756069;28;20223;-67
2023/04/21 05:10:10;;;;;;;11.45;10.35;;;;;;;;;;1754387;28;20209;-67
2023/04/21 05:11:02;;;;;;;11.43;10.30;;;;;;;;;;1756136;28;20198;-67
2023/04/21 05:11:53;;;;;;;11.48;10.35;;;;;;;;;;1755740;28;20193;-66
2023/04/21 05:12:45;;;;;;;13.13;10.05;;;;;;;;;;1756228;28;20206;-67
2023/04/21 05:13:37;;;;;;;13.00;11.80;;;;;;;;;;1755774;28;20202;-67
2023/04/21 05:14:29;;;;;;;11.98;10.70;;;;;;;;;;1756026;28;20209;-67
2023/04/21 05:15:21;;;;;;;12.57;11.38;;;;;;;;;;1756071;28;20201;-66
2023/04/21 05:16:14;;;;;;;12.93;11.68;;;;;;;;;;1755935;28;20737;-68
2023/04/21 05:17:05;;;;;;;13.00;11.73;;;;;;;;;;1755824;28;20209;-67
2023/04/21 05:17:57;;;;;;;11.77;10.68;;;;;;;;;;1756001;28;20202;-66
2023/04/21 05:18:49;;;;;;;13.82;12.52;;;;;;;;;;1755910;28;20599;-66
2023/04/21 05:19:41;;;;;;;12.88;11.65;;;;;;;;;;1756058;28;20250;-67
2023/04/21 05:20:33;;;;;;;13.02;11.75;;;;;;;;;;1752348;28;20265;-66
2023/04/21 05:21:27;;;;;;;12.30;11.00;;;;;;;;;;1755143;28;20197;-67
2023/04/21 05:22:18;;;;;;;13.00;11.77;;;;;;;;;;1758725;28;20197;-67
2023/04/21 05:23:10;;;;;;;14.38;12.98;;;;;;;;;;1755929;28;20278;-66
2023/04/21 05:24:01;;;;;;;12.70;11.50;;;;;;;;;;1761335;28;20225;-66
2023/04/21 05:24:53;;;;;;;13.38;11.98;;;;;;;;;;1755897;28;20254;-66
2023/04/21 05:25:44;;;;;;;12.40;11.15;;;;;;;;;;1755617;28;20205;-66
2023/04/21 05:26:36;;;;;;;13.80;12.40;;;;;;;;;;1755052;28;20198;-67
2023/04/21 05:27:27;;;;;;;15.88;14.20;;;;;;;;;;1753074;28;20221;-67
2023/04/21 05:28:19;;;;;;;14.95;13.45;;;;;;;;;;1754122;28;20213;-66
2023/04/21 05:29:10;;;;;;;14.45;12.95;;;;;;;;;;1758770;28;20216;-67
2023/04/21 05:30:02;;;;;;;14.70;13.30;;;;;;;;;;1761168;28;20193;-67
2023/04/21 05:30:53;;;;;;;15.38;13.80;;;;;;;;;;1756376;28;20229;-66
2023/04/21 05:31:47;;;;;;;15.00;13.50;;;;;;;;;;1762979;28;20232;-66
2023/04/21 05:32:38;;;;;;;15.95;14.38;;;;;;;;;;1763025;28;20208;-67
2023/04/21 05:33:31;;;;;;;15.98;14.40;;;;;;;;;;1762923;28;20283;-66
2023/04/21 05:34:22;;;;;;;17.05;15.55;;;;;;;;;;1763007;28;20257;-67
2023/04/21 05:35:14;;;;;;;18.33;16.45;;;;;;;;;;1762872;28;20258;-67
2023/04/21 05:36:07;;;;;;;21.27;19.17;;;;;;;;;;1762905;28;20208;-67
2023/04/21 05:36:59;;;;;;;20.40;18.30;;;;;;;;;;1762514;28;20219;-67
2023/04/21 05:37:50;;;;;;;23.17;19.63;;;;;;;;;;1762935;28;20204;-68
2023/04/21 05:38:42;;;;;;;21.10;19.02;;;;;;;;;;1762780;28;20232;-67
2023/04/21 05:39:33;;;;;;;20.23;18.25;;;;;;;;;;1762865;28;20201;-67
2023/04/21 05:40:25;;;;;;;21.70;19.60;;;;;;;;;;1762847;28;20226;-67
2023/04/21 05:41:16;;;;;;;21.20;19.05;;;;;;;;;;1762892;28;20193;-67
2023/04/21 05:42:10;;;;;;;22.42;20.13;;;;;;;;;;1761152;28;20193;-67
2023/04/21 05:43:01;;;;;;;19.88;17.92;;;;;;;;;;1748878;28;20203;-67
2023/04/21 05:43:53;;;;;;;21.33;19.17;;;;;;;;;;1748846;28;20207;-67
2023/04/21 05:44:44;;;;;;;21.50;19.27;;;;;;;;;;1748013;28;20202;-67
2023/04/21 05:45:39;;;;;;;23.85;21.35;;;;;;;;;;1748354;28;20226;-67
2023/04/21 05:46:30;;;;;;;22.40;20.10;;;;;;;;;;1748529;28;20348;-67
2023/04/21 05:47:23;;;;;;;22.48;20.20;;;;;;;;;;1748813;28;20191;-67
2023/04/21 05:48:15;;;;;;;21.75;19.55;;;;;;;;;;1748775;28;20229;-66
2023/04/21 05:49:07;;;;;;;21.63;19.33;;;;;;;;;;1748754;28;20790;-68
2023/04/21 05:49:58;;;;;;;23.65;21.15;;;;;;;;;;1748748;28;20203;-67
2023/04/21 05:50:50;;;;;;;21.20;19.00;;;;;;;;;;1748757;28;20223;-66
2023/04/21 05:51:41;;;;;;;18.65;16.75;;;;;;;;;;1748835;28;20245;-67
2023/04/21 05:52:33;;;;;;;19.08;17.08;;;;;;;;;;1748721;28;20198;-68
2023/04/21 05:53:24;;;;;;;18.00;16.20;;;;;;;;;;1748756;28;20823;-67
2023/04/21 05:54:16;;;;;;;17.42;15.68;;;;;;;;;;1748859;28;20198;-66
2023/04/21 05:55:08;;;;;;;17.58;15.82;;;;;;;;;;1746752;28;20589;-68
2023/04/21 05:56:00;;;;;;;17.30;15.60;;;;;;;;;;1748809;28;20669;-70
2023/04/21 05:56:51;;;;;;;17.70;16.00;;;;;;;;;;1750509;28;20207;-67
2023/04/21 05:57:43;;;;;;;17.35;15.60;;;;;;;;;;1754136;28;20187;-68
2023/04/21 05:58:35;;;;;;;16.80;15.15;;;;;;;;;;1749113;28;20561;-67
2023/04/21 05:59:27;;;;;;;17.73;15.93;;;;;;;;;;1753244;28;20193;-67
2023/04/21 06:00:18;;;;;;;18.10;16.20;;;;;;;;;;1755476;28;20194;-67
2023/04/21 06:01:11;;;;;;;17.38;15.65;;;;;;;;;;1755540;28;20193;-67
2023/04/21 06:02:03;;;;;;;17.48;15.68;;;;;;;;;;1749931;28;20260;-67
2023/04/21 06:02:56;;;;;;;17.38;15.48;;;;;;;;;;1748559;28;20252;-66
2023/04/21 06:03:48;;;;;;;17.25;15.57;;;;;;;;;;1748520;28;20207;-66
2023/04/21 06:04:40;;;;;;;17.75;16.05;;;;;;;;;;1748611;28;20677;-66
2023/04/21 06:05:32;;;;;;;17.08;15.38;;;;;;;;;;1748608;28;20237;-66
2023/04/21 06:06:26;;;;;;;16.30;14.60;;;;;;;;;;1747750;28;20202;-66
2023/04/21 06:07:17;;;;;;;17.60;15.75;;;;;;;;;;1747949;28;20227;-69
2023/04/21 06:08:09;;;;;;;19.42;17.13;;;;;;;;;;1747981;28;20733;-67
2023/04/21 06:09:00;;;;;;;18.73;16.73;;;;;;;;;;1748198;28;20640;-67
2023/04/21 06:09:52;;;;;;;19.35;17.10;;;;;;;;;;1747817;28;20732;-67
2023/04/21 06:10:43;;;;;;;23.02;20.52;;;;;;;;;;1747786;28;20226;-67
2023/04/21 06:11:35;;;;;;;22.92;19.92;;;;;;;;;;1747972;28;20205;-68
2023/04/21 06:12:27;;;;;;;22.52;20.15;;;;;;;;;;1748519;28;20202;-68
2023/04/21 06:13:19;;;;;;;23.45;20.52;;;;;;;;;;1748553;28;20248;-66
2023/04/21 06:14:10;;;;;;;23.27;20.80;;;;;;;;;;1748459;28;20210;-66
2023/04/21 06:15:02;;;;;;;23.42;19.88;;;;;;;;;;1748636;28;20198;-67
2023/04/21 06:15:53;;;;;;;24.50;19.80;;;;;;;;;;1748714;28;20206;-68
2023/04/21 06:16:45;;;;;;;24.92;20.95;;;;;;;;;;1754324;28;20197;-66
2023/04/21 06:17:36;;;;;;;24.40;21.45;;;;;;;;;;1755554;28;20205;-66
2023/04/21 06:18:29;;;;;;;23.13;20.60;;;;;;;;;;1754597;28;20205;-67
2023/04/21 06:19:20;;;;;;;26.02;22.52;;;;;;;;;;1755411;28;20221;-67
2023/04/21 06:20:13;;;;;;;25.25;22.55;;;;;;;;;;1754915;28;20198;-67
2023/04/21 06:21:04;;;;;;;25.10;22.42;;;;;;;;;;1755254;28;20226;-66
2023/04/21 06:21:57;;;;;;;24.08;21.48;;;;;;;;;;1755508;28;20201;-67
2023/04/21 06:22:49;;;;;;;22.75;20.35;;;;;;;;;;1755521;28;20206;-66
2023/04/21 06:23:41;;;;;;;24.50;20.92;;;;;;;;;;1755617;28;20615;-66
2023/04/21 06:24:32;;;;;;;24.60;22.10;;;;;;;;;;1755447;28;20595;-66
2023/04/21 06:25:24;;;;;;;24.98;22.17;;;;;;;;;;1755716;28;20289;-66
2023/04/21 06:26:15;;;;;;;24.25;21.65;;;;;;;;;;1754736;28;20201;-67
2023/04/21 06:27:10;;;;;;;23.27;20.77;;;;;;;;;;1755380;28;20200;-66
2023/04/21 06:28:01;;;;;;;23.10;20.70;;;;;;;;;;1755580;28;20742;-67
2023/04/21 06:28:53;;;;;;;22.63;20.10;;;;;;;;;;1755414;28;20297;-66
2023/04/21 06:29:44;;;;;;;21.80;19.48;;;;;;;;;;1755494;28;20248;-66
2023/04/21 06:30:36;;;;;;;22.98;20.60;;;;;;;;;;1755115;28;20656;-67
2023/04/21 06:31:27;;;;;;;23.08;19.70;;;;;;;;;;1755479;28;20689;-67
2023/04/21 06:32:19;;;;;;;21.10;18.90;;;;;;;;;;1755434;28;20227;-65
2023/04/21 06:33:10;;;;;;;23.33;20.90;;;;;;;;;;1755387;28;20233;-66
2023/04/21 06:34:04;;;;;;;22.33;20.02;;;;;;;;;;1755458;28;20198;-67
2023/04/21 06:34:55;;;;;;;24.05;20.25;;;;;;;;;;1755524;28;20224;-67
2023/04/21 06:35:47;;;;;;;21.05;18.85;;;;;;;;;;1755476;28;20198;-67
2023/04/21 06:36:38;;;;;;;21.67;19.52;;;;;;;;;;1754689;28;20236;-67
2023/04/21 06:37:30;;;;;;;21.05;19.05;;;;;;;;;;1755237;28;20201;-66
2023/04/21 06:38:21;;;;;;;21.40;19.08;;;;;;;;;;1755363;28;20241;-67
2023/04/21 06:39:13;;;;;;;21.20;19.00;;;;;;;;;;1755320;28;20692;-67
2023/04/21 06:40:05;;;;;;;22.70;20.48;;;;;;;;;;1755454;28;20308;-67
2023/04/21 06:40:57;;;;;;;22.65;20.25;;;;;;;;;;1755328;28;20602;-67
2023/04/21 06:41:48;;;;;;;21.48;19.17;;;;;;;;;;1755328;28;20206;-67
2023/04/21 06:42:40;;;;;;;22.25;19.95;;;;;;;;;;1755393;28;20194;-67
2023/04/21 06:43:31;;;;;;;21.52;19.23;;;;;;;;;;1755298;28;20205;-66
2023/04/21 06:44:23;;;;;;;23.40;20.92;;;;;;;;;;1755455;28;20666;-67
2023/04/21 06:45:15;;;;;;;20.55;18.35;;;;;;;;;;1755248;28;20692;-66
2023/04/21 06:46:07;;;;;;;23.52;21.05;;;;;;;;;;1755321;28;20636;-67
2023/04/21 06:46:58;;;;;;;22.95;20.35;;;;;;;;;;1754334;28;20220;-67
2023/04/21 06:47:50;;;;;;;21.60;19.42;;;;;;;;;;1753980;28;20194;-67
2023/04/21 06:48:41;;;;;;;22.55;20.40;;;;;;;;;;1755245;28;20205;-67
2023/04/21 06:49:36;;;;;;;22.42;20.02;;;;;;;;;;1755202;28;20194;-67
2023/04/21 06:50:27;;;;;;;21.33;19.17;;;;;;;;;;1755264;28;20206;-67
2023/04/21 06:51:19;;;;;;;23.63;21.13;;;;;;;;;;1755053;28;20221;-68
2023/04/21 06:52:10;;;;;;;22.90;20.02;;;;;;;;;;1755238;28;20213;-68
2023/04/21 06:53:02;;;;;;;20.80;18.60;;;;;;;;;;1755310;28;20728;-67
2023/04/21 06:53:53;;;;;;;22.80;20.40;;;;;;;;;;1755276;28;20206;-67
2023/04/21 06:54:45;;;;;;;23.65;19.90;;;;;;;;;;1755295;28;20205;-67
2023/04/21 06:55:36;;;;;;;23.83;21.38;;;;;;;;;;1755271;28;20236;-67
2023/04/21 06:56:28;;;;;;;22.38;19.17;;;;;;;;;;1754065;28;20198;-66
2023/04/21 06:57:19;;;;;;;21.92;19.80;;;;;;;;;;1755135;28;20198;-66
2023/04/21 06:58:11;;;;;;;21.67;19.48;;;;;;;;;;1755277;28;20618;-67
2023/04/21 06:59:03;;;;;;;21.52;19.02;;;;;;;;;;1755217;28;20237;-67
2023/04/21 06:59:55;;;;;;;22.63;20.23;;;;;;;;;;1755323;28;20210;-67
2023/04/21 07:00:46;;;;;;;21.88;18.58;;;;;;;;;;1755185;28;20254;-66
2023/04/21 07:01:38;;;;;;;23.00;20.05;;;;;;;;;;1755215;28;20266;-67
2023/04/21 07:02:29;;;;;;;21.77;19.35;;;;;;;;;;1755309;28;20205;-67
2023/04/21 07:03:21;;;;;;;22.42;20.17;;;;;;;;;;1755245;28;20567;-66
2023/04/21 07:04:12;;;;;;;22.63;20.33;;;;;;;;;;1754839;28;21006;-67
2023/04/21 07:05:06;;;;;;;22.50;20.20;;;;;;;;;;1755268;28;20205;-68
2023/04/21 07:05:57;;;;;;;24.92;21.48;;;;;;;;;;1755224;28;20194;-67
2023/04/21 07:06:49;;;;;;;23.15;20.33;;;;;;;;;;1754262;28;20664;-67
2023/04/21 07:07:40;;;;;;;22.42;20.05;;;;;;;;;;1754974;28;20545;-67
2023/04/21 07:08:32;;;;;;;24.02;21.50;;;;;;;;;;1755123;28;20201;-67
2023/04/21 07:09:23;;;;;;;22.23;19.90;;;;;;;;;;1755179;28;20198;-67
2023/04/21 07:10:18;;;;;;;20.95;18.85;;;;;;;;;;1755067;28;20280;-68
2023/04/21 07:11:09;;;;;;;23.48;20.90;;;;;;;;;;1755184;28;20620;-67
2023/04/21 07:12:01;;;;;;;23.20;20.65;;;;;;;;;;1755269;28;20205;-66
2023/04/21 07:12:53;;;;;;;22.55;20.15;;;;;;;;;;1755152;28;20209;-68
2023/04/21 07:13:45;;;;;;;22.35;19.98;;;;;;;;;;1755181;28;20201;-67
2023/04/21 07:14:36;;;;;;;21.55;19.27;;;;;;;;;;1755068;28;20198;-67
2023/04/21 07:15:28;;;;;;;23.25;20.98;;;;;;;;;;1755083;28;20555;-67
2023/04/21 07:16:19;;;;;;;23.80;21.30;;;;;;;;;;1754327;28;20228;-66
2023/04/21 07:17:11;;;;;;;21.70;19.50;;;;;;;;;;1754975;28;20220;-67
2023/04/21 07:18:02;;;;;;;23.65;21.25;;;;;;;;;;1755093;28;20561;-66
2023/04/21 07:18:54;;;;;;;23.48;21.08;;;;;;;;;;1755095;28;20258;-67
2023/04/21 07:19:45;;;;;;;21.40;19.20;;;;;;;;;;1755035;28;20225;-67
2023/04/21 07:20:39;;;;;;;21.30;19.05;;;;;;;;;;1755042;28;20628;-66
2023/04/21 07:21:31;;;;;;;23.73;21.13;;;;;;;;;;1754935;28;20213;-67
2023/04/21 07:22:23;;;;;;;20.75;18.75;;;;;;;;;;1754640;28;20537;-67
2023/04/21 07:23:14;;;;;;;22.33;19.95;;;;;;;;;;1755026;28;20677;-67
2023/04/21 07:24:06;;;;;;;24.40;21.88;;;;;;;;;;1755075;28;20190;-67
2023/04/21 07:24:57;;;;;;;22.20;19.77;;;;;;;;;;1755066;28;20208;-67
2023/04/21 07:25:50;;;;;;;23.70;20.30;;;;;;;;;;1754981;28;20201;-66
2023/04/21 07:26:41;;;;;;;22.55;20.15;;;;;;;;;;1754299;28;20296;-67
2023/04/21 07:27:35;;;;;;;23.70;21.30;;;;;;;;;;1754967;28;20222;-67
2023/04/21 07:28:26;;;;;;;21.92;19.73;;;;;;;;;;1755005;28;20210;-67
2023/04/21 07:29:18;;;;;;;22.45;20.05;;;;;;;;;;1755052;28;20197;-67
2023/04/21 07:30:09;;;;;;;23.65;21.30;;;;;;;;;;1754956;28;20205;-67
2023/04/21 07:31:01;;;;;;;23.25;20.85;;;;;;;;;;1755057;28;20229;-66
2023/04/21 07:31:53;;;;;;;21.88;19.67;;;;;;;;;;1754979;28;20201;-66
2023/04/21 07:32:45;;;;;;;21.60;19.40;;;;;;;;;;1755043;28;20657;-67
2023/04/21 07:33:36;;;;;;;23.00;20.70;;;;;;;;;;1754962;28;20224;-67
2023/04/21 07:34:29;;;;;;;22.90;20.45;;;;;;;;;;1755019;28;20205;-67
2023/04/21 07:35:20;;;;;;;21.92;19.63;;;;;;;;;;1755014;28;20280;-66
2023/04/21 07:36:14;;;;;;;20.40;18.30;;;;;;;;;;1754784;28;20198;-65
2023/04/21 07:37:05;;;;;;;22.05;19.85;;;;;;;;;;1754983;28;20640;-66
2023/04/21 07:37:57;;;;;;;20.05;17.98;;;;;;;;;;1754923;28;20201;-66
2023/04/21 07:38:48;;;;;;;21.02;18.83;;;;;;;;;;1754551;28;20225;-66
2023/04/21 07:39:40;;;;;;;21.38;19.17;;;;;;;;;;1754959;28;20217;-65
2023/04/21 07:40:31;;;;;;;20.05;17.95;;;;;;;;;;1754907;28;20221;-65
2023/04/21 07:41:23;;;;;;;21.63;19.42;;;;;;;;;;1755148;28;20201;-66
2023/04/21 07:42:14;;;;;;;21.13;18.92;;;;;;;;;;1754896;28;20680;-65
2023/04/21 07:43:06;;;;;;;20.25;18.15;;;;;;;;;;1755032;28;20243;-66
2023/04/21 07:43:57;;;;;;;20.85;18.85;;;;;;;;;;1754950;28;20198;-66
2023/04/21 07:44:49;;;;;;;19.55;17.58;;;;;;;;;;1754922;28;20197;-65
2023/04/21 07:45:41;;;;;;;22.10;19.52;;;;;;;;;;1754966;28;20208;-65
2023/04/21 07:46:33;;;;;;;20.52;18.33;;;;;;;;;;1754113;28;20653;-67
2023/04/21 07:47:24;;;;;;;20.13;18.15;;;;;;;;;;1754731;28;20252;-66
2023/04/21 07:48:16;;;;;;;20.15;18.05;;;;;;;;;;1754991;28;20218;-65
2023/04/21 07:49:07;;;;;;;21.80;19.60;;;;;;;;;;1754963;28;20193;-65
2023/04/21 07:50:00;;;;;;;21.13;18.92;;;;;;;;;;1754915;28;20189;-68
2023/04/21 07:50:52;;;;;;;22.65;20.40;;;;;;;;;;1754724;28;20221;-67
2023/04/21 07:51:45;;;;;;;18.33;16.52;;;;;;;;;;1755004;28;20284;-67
2023/04/21 07:52:36;;;;;;;18.40;16.60;;;;;;;;;;1754870;28;20198;-65
2023/04/21 07:53:29;;;;;;;19.55;17.52;;;;;;;;;;1754889;28;20247;-65
2023/04/21 07:54:20;;;;;;;22.00;18.48;;;;;;;;;;1754802;28;20619;-66
2023/04/21 07:55:12;;;;;;;20.08;17.90;;;;;;;;;;1754560;28;20665;-65
2023/04/21 07:56:03;;;;;;;20.67;18.70;;;;;;;;;;1754940;28;20194;-65
2023/04/21 07:56:55;;;;;;;21.02;18.83;;;;;;;;;;1754099;28;20251;-66
2023/04/21 07:57:46;;;;;;;19.60;17.73;;;;;;;;;;1755011;28;20210;-65
2023/04/21 07:58:38;;;;;;;18.60;16.30;;;;;;;;;;1754537;28;20257;-65
2023/04/21 07:59:30;;;;;;;19.23;17.33;;;;;;;;;;1754799;28;20258;-65
2023/04/21 08:00:22;;;;;;;20.00;18.02;;;;;;;;;;1754933;28;20198;-66
2023/04/21 08:01:13;;;;;;;20.60;18.50;;;;;;;;;;1754950;28;20205;-65
2023/04/21 08:02:05;;;;;;;19.98;18.08;;;;;;;;;;1754828;28;20198;-65
2023/04/21 08:02:56;;;;;;;18.58;16.70;;;;;;;;;;1754894;28;20255;-67
2023/04/21 08:03:48;;;;;;;19.33;17.48;;;;;;;;;;1754801;28;20653;-65
2023/04/21 08:04:39;;;;;;;19.13;17.15;;;;;;;;;;1754706;28;20548;-66
2023/04/21 08:05:31;;;;;;;18.42;16.58;;;;;;;;;;1754722;28;20687;-65
2023/04/21 08:06:22;;;;;;;19.30;17.13;;;;;;;;;;1754091;28;20333;-66
2023/04/21 08:07:16;;;;;;;17.83;15.98;;;;;;;;;;1754681;28;20197;-65
2023/04/21 08:08:07;;;;;;;16.83;15.25;;;;;;;;;;1754052;28;20223;-65
2023/04/21 08:08:59;;;;;;;16.00;14.32;;;;;;;;;;1754799;28;20207;-65
2023/04/21 08:09:50;;;;;;;17.05;15.25;;;;;;;;;;1754736;28;20202;-67
2023/04/21 08:10:42;;;;;;;15.93;14.27;;;;;;;;;;1754810;28;20217;-65
2023/04/21 08:11:33;;;;;;;15.68;14.07;;;;;;;;;;1754720;28;20202;-65
2023/04/21 08:12:25;;;;;;;15.45;13.88;;;;;;;;;;1754263;28;20626;-68
2023/04/21 08:13:16;;;;;;;16.30;14.70;;;;;;;;;;1754882;28;20201;-69
2023/04/21 08:14:10;;;;;;;16.77;15.10;;;;;;;;;;1754818;28;20198;-65
2023/04/21 08:15:06;;;;;;;15.80;14.30;;;;;;;;;;1754842;28;20205;-65
2023/04/21 08:15:57;;;;;;;16.42;14.85;;;;;;;;;;1754801;28;20209;-65
2023/04/21 08:16:49;;;;;;;15.68;14.15;;;;;;;;;;1753869;28;20247;-65
2023/04/21 08:17:40;;;;;;;15.25;13.85;;;;;;;;;;1754794;28;20198;-65
2023/04/21 08:18:32;;;;;;;16.60;15.00;;;;;;;;;;1754780;28;20210;-65
2023/04/21 08:19:23;;;;;;;16.50;14.80;;;;;;;;;;1754852;28;20201;-66
2023/04/21 08:20:15;;;;;;;14.57;13.07;;;;;;;;;;1754643;28;20276;-65
2023/04/21 08:21:06;;;;;;;14.50;12.98;;;;;;;;;;1754720;28;20198;-65
2023/04/21 08:21:58;;;;;;;13.57;12.27;;;;;;;;;;1754785;28;20219;-65
2023/04/21 08:22:51;;;;;;;13.10;11.90;;;;;;;;;;1754711;28;20728;-65
2023/04/21 08:23:43;;;;;;;14.07;12.68;;;;;;;;;;1754856;28;20213;-65
2023/04/21 08:24:34;;;;;;;14.27;12.88;;;;;;;;;;1754711;28;20236;-65
2023/04/21 08:25:26;;;;;;;14.07;12.50;;;;;;;;;;1754721;28;20194;-65
2023/04/21 08:26:19;;;;;;;15.30;13.80;;;;;;;;;;1754020;28;20202;-67
2023/04/21 08:27:11;;;;;;;13.95;12.65;;;;;;;;;;1754587;28;20679;-65
2023/04/21 08:28:02;;;;;;;14.43;13.00;;;;;;;;;;1754832;28;20641;-65
2023/04/21 08:28:54;;;;;;;14.35;12.82;;;;;;;;;;1754478;28;20201;-65
2023/04/21 08:29:46;;;;;;;15.93;12.43;;;;;;;;;;1754668;28;20198;-65
2023/04/21 08:30:38;;;;;;;14.30;12.90;;;;;;;;;;1754537;28;20255;-66
2023/04/21 08:31:29;;;;;;;14.00;12.40;;;;;;;;;;1754572;28;20201;-66
2023/04/21 08:32:23;;;;;;;12.32;11.13;;;;;;;;;;1754785;28;20612;-65
2023/04/21 08:33:14;;;;;;;15.15;11.65;;;;;;;;;;1754527;28;20194;-65
2023/04/21 08:34:06;;;;;;;13.80;11.75;;;;;;;;;;1754626;28;20845;-65
2023/04/21 08:34:57;;;;;;;12.93;11.50;;;;;;;;;;1754813;28;20206;-66
2023/04/21 08:35:49;;;;;;;12.05;10.85;;;;;;;;;;1754619;28;20281;-65
2023/04/21 08:36:41;;;;;;;12.35;11.15;;;;;;;;;;1753920;28;20205;-66
2023/04/21 08:37:33;;;;;;;11.23;10.15;;;;;;;;;;1754595;28;20288;-66
2023/04/21 08:38:26;;;;;;;12.10;10.90;;;;;;;;;;1754689;28;20229;-65
2023/04/21 08:39:18;;;;;;;11.73;10.55;;;;;;;;;;1754702;28;20206;-65
2023/04/21 08:40:09;;;;;;;11.60;10.40;;;;;;;;;;1754607;28;20272;-67
2023/04/21 08:41:01;;;;;;;10.70;9.60;;;;;;;;;;1754680;28;20751;-65
2023/04/21 08:41:52;;;;;;;11.05;10.05;;;;;;;;;;1754645;28;20198;-66
2023/04/21 08:42:45;;;;;;;9.98;8.98;;;;;;;;;;1754714;28;20198;-66
2023/04/21 08:43:36;;;;;;;11.02;10.02;;;;;;;;;;1754555;28;20198;-66
2023/04/21 08:44:28;;;;;;;11.50;10.40;;;;;;;;;;1754259;28;20193;-65
2023/04/21 08:45:19;;;;;;;11.98;10.77;;;;;;;;;;1754634;28;20198;-65
2023/04/21 08:46:13;;;;;;;11.48;10.38;;;;;;;;;;1754567;28;20653;-68
2023/04/21 08:47:04;;;;;;;13.18;11.77;;;;;;;;;;1754272;28;20236;-66
2023/04/21 08:47:56;;;;;;;11.57;10.55;;;;;;;;;;1754735;28;20239;-64
2023/04/21 08:48:47;;;;;;;11.70;10.60;;;;;;;;;;1754628;28;20740;-66
2023/04/21 08:49:41;;;;;;;11.18;10.07;;;;;;;;;;1754715;28;20204;-66
2023/04/21 08:50:33;;;;;;;13.15;11.75;;;;;;;;;;1754497;28;20728;-66
2023/04/21 08:51:29;;;;;;;12.40;11.30;;;;;;;;;;1754592;28;20204;-66
2023/04/21 08:52:20;;;;;;;11.55;10.45;;;;;;;;;;1754682;28;20642;-66
2023/04/21 08:53:12;;;;;;;10.95;9.85;;;;;;;;;;1754565;28;20197;-66
2023/04/21 08:54:05;;;;;;;12.90;11.65;;;;;;;;;;1754790;28;20198;-65
2023/04/21 08:54:57;;;;;;;13.05;11.75;;;;;;;;;;1754656;28;20575;-66
2023/04/21 08:55:51;;;;;;;10.10;9.20;;;;;;;;;;1754600;28;20229;-66
2023/04/21 08:56:44;;;;;;;11.18;9.95;;;;;;;;;;1753920;28;20665;-66
2023/04/21 08:57:35;;;;;;;13.05;10.82;;;;;;;;;;1754546;28;20589;-66
2023/04/21 08:58:27;;;;;;;13.30;12.20;;;;;;;;;;1754678;28;20653;-65
2023/04/21 08:59:18;;;;;;;12.98;11.77;;;;;;;;;;1754671;28;20677;-65
2023/04/21 09:00:10;;;;;;;12.80;11.60;;;;;;;;;;1754526;28;20235;-66
2023/04/21 09:01:01;;;;;;;14.07;11.45;;;;;;;;;;1754212;28;20244;-66
2023/04/21 09:02:11;;;;;;;12.45;10.35;;;;;;;;;;1754568;28;20197;-66
2023/04/21 09:03:06;;;;;;;12.98;11.68;;;;;;;;;;1754616;28;20201;-65
2023/04/21 09:04:15;;;;;;;11.90;10.80;;;;;;;;;;1754560;28;20221;-66
2023/04/21 09:05:07;;;;;;;12.40;11.10;;;;;;;;;;1754609;28;20206;-66
2023/04/21 09:05:59;;;;;;;12.50;11.20;;;;;;;;;;1754650;28;20254;-65
2023/04/21 09:06:50;;;;;;;15.23;11.90;;;;;;;;;;1753702;28;20224;-66
2023/04/21 09:07:42;;;;;;;11.77;10.63;;;;;;;;;;1754664;28;20206;-66
2023/04/21 09:08:34;;;;;;;11.00;9.82;;;;;;;;;;1754548;28;20586;-66
2023/04/21 09:09:27;;;;;;;10.82;9.82;;;;;;;;;;1754608;28;20193;-65
2023/04/21 09:10:22;;;;;;;10.85;9.75;;;;;;;;;;1754549;28;20205;-66
2023/04/21 09:11:15;;;;;;;11.85;10.70;;;;;;;;;;1754546;28;20681;-66
2023/04/21 09:12:06;;;;;;;11.90;10.80;;;;;;;;;;1754582;28;20738;-65
2023/04/21 09:12:58;;;;;;;12.65;11.35;;;;;;;;;;1754575;28;20229;-66
2023/04/21 09:13:49;;;;;;;11.43;10.32;;;;;;;;;;1754512;28;20202;-66
2023/04/21 09:14:43;;;;;;;15.55;11.43;;;;;;;;;;1754511;28;20730;-67
2023/04/21 09:15:37;;;;;;;11.38;10.27;;;;;;;;;;1754585;28;20198;-66
2023/04/21 09:16:32;;;;;;;13.70;10.82;;;;;;;;;;1753763;28;20586;-67
2023/04/21 09:17:31;;;;;;;11.88;10.88;;;;;;;;;;1754550;28;20565;-65
2023/04/21 09:18:23;;;;;;;10.00;9.00;;;;;;;;;;1754430;28;20194;-66
2023/04/21 09:19:15;;;;;;;10.38;9.20;;;;;;;;;;1754712;28;20197;-67
2023/04/21 09:20:15;;;;;;;9.18;8.38;;;;;;;;;;1755568;28;20221;-65
2023/04/21 09:21:07;;;;;;;9.05;8.25;;;;;;;;;;1755825;28;20209;-65
2023/04/21 09:22:00;;;;;;;11.55;7.07;;;;;;;;;;1755787;28;20193;-65
2023/04/21 09:22:52;;;;;;;9.60;7.88;;;;;;;;;;1755783;28;20198;-65
2023/04/21 09:23:44;;;;;;;8.90;8.10;;;;;;;;;;1755914;28;20288;-66
2023/04/21 09:24:43;;;;;;;8.68;7.88;;;;;;;;;;1755724;28;20240;-65
2023/04/21 09:25:38;;;;;;;9.00;8.30;;;;;;;;;;1755855;28;20209;-65
2023/04/21 09:26:30;;;;;;;9.10;8.20;;;;;;;;;;1754965;28;20229;-65
2023/04/21 09:27:22;;;;;;;10.00;9.00;;;;;;;;;;1755678;28;20707;-66
2023/04/21 09:28:14;;;;;;;11.25;9.75;;;;;;;;;;1755737;28;20700;-66
2023/04/21 09:29:06;;;;;;;9.07;8.32;;;;;;;;;;1755926;28;20630;-66
2023/04/21 09:30:02;;;;;;;10.57;9.55;;;;;;;;;;1755867;28;20685;-65
2023/04/21 09:30:56;;;;;;;12.20;11.02;;;;;;;;;;1755630;28;20237;-65
2023/04/21 09:31:47;;;;;;;10.75;9.75;;;;;;;;;;1755809;28;20614;-67
2023/04/21 09:32:39;;;;;;;11.05;10.00;;;;;;;;;;1755790;28;20210;-65
2023/04/21 09:33:33;;;;;;;9.75;8.75;;;;;;;;;;1755683;28;20212;-65
2023/04/21 09:34:26;;;;;;;9.80;8.88;;;;;;;;;;1755730;28;20206;-65
2023/04/21 09:35:18;;;;;;;10.25;9.35;;;;;;;;;;1755434;28;20190;-66
2023/04/21 09:36:18;;;;;;;10.10;9.20;;;;;;;;;;1755688;28;20221;-66
2023/04/21 09:37:10;;;;;;;8.60;7.80;;;;;;;;;;1755795;28;20414;-66
2023/04/21 09:38:02;;;;;;;8.48;7.68;;;;;;;;;;1755877;28;20276;-66
2023/04/21 09:38:57;;;;;;;8.55;7.75;;;;;;;;;;1755734;28;20730;-66
2023/04/21 09:39:51;;;;;;;9.38;8.57;;;;;;;;;;1755706;28;20225;-65
2023/04/21 09:40:42;;;;;;;10.02;9.13;;;;;;;;;;1755651;28;20225;-66
2023/04/21 09:41:34;;;;;;;10.65;8.90;;;;;;;;;;1755642;28;20598;-65
2023/04/21 09:42:28;;;;;;;9.88;8.98;;;;;;;;;;1755817;28;20205;-66
2023/04/21 09:43:20;;;;;;;10.00;9.00;;;;;;;;;;1755771;28;20198;-65
2023/04/21 09:44:11;;;;;;;10.10;9.20;;;;;;;;;;1755700;28;20193;-65
2023/04/21 09:45:03;;;;;;;8.25;7.55;;;;;;;;;;1755662;28;20267;-65
2023/04/21 09:45:55;;;;;;;7.55;6.90;;;;;;;;;;1755682;28;20231;-65
2023/04/21 09:46:49;;;;;;;8.10;7.30;;;;;;;;;;1754868;28;20202;-65
2023/04/21 09:47:41;;;;;;;7.32;6.72;;;;;;;;;;1755701;28;20201;-64
2023/04/21 09:48:34;;;;;;;8.80;6.65;;;;;;;;;;1755637;28;20198;-66
2023/04/21 09:49:28;;;;;;;7.80;7.10;;;;;;;;;;1755745;28;20701;-67
2023/04/21 09:50:21;;;;;;;7.00;6.32;;;;;;;;;;1755676;28;20197;-65
2023/04/21 09:51:13;;;;;;;6.32;5.80;;;;;;;;;;1755656;28;20205;-65
2023/04/21 09:52:05;;;;;;;7.28;6.57;;;;;;;;;;1755058;28;20193;-65
2023/04/21 09:52:56;;;;;;;7.00;6.30;;;;;;;;;;1755557;28;20198;-66
2023/04/21 09:53:50;;;;;;;7.60;6.70;;;;;;;;;;1755476;28;20653;-65
2023/04/21 09:54:45;;;;;;;7.47;6.78;;;;;;;;;;1755721;28;20233;-66
2023/04/21 09:55:38;;;;;;;12.25;7.47;;;;;;;;;;1755826;28;20270;-67
2023/04/21 09:56:32;;;;;;;7.80;7.00;;;;;;;;;;1754845;28;20226;-66
2023/04/21 09:57:26;;;;;;;8.10;7.40;;;;;;;;;;1755483;28;20202;-64
2023/04/21 09:58:19;;;;;;;8.30;7.50;;;;;;;;;;1755639;28;20259;-65
2023/04/21 09:59:14;;;;;;;7.10;6.40;;;;;;;;;;1755601;28;20206;-66
2023/04/21 10:00:06;;;;;;;7.35;6.65;;;;;;;;;;1755619;28;20206;-66
2023/04/21 10:00:59;;;;;;;7.80;7.15;;;;;;;;;;1755605;28;20766;-66
2023/04/21 10:01:50;;;;;;;8.07;7.38;;;;;;;;;;1755630;28;20490;-65
2023/04/21 10:02:44;;;;;;;7.00;6.32;;;;;;;;;;1755597;28;20205;-65
2023/04/21 10:03:38;;;;;;;7.70;6.90;;;;;;;;;;1755576;28;20229;-66
2023/04/21 10:04:31;;;;;;;6.65;6.07;;;;;;;;;;1755595;28;20201;-65
2023/04/21 10:05:23;;;;;;;7.97;6.68;;;;;;;;;;1755629;28;20232;-66